sensor_id;sensor_type;location;lat;lon;timestamp;pressure;altitude;pressure_sealevel;temperature;humidity
71774;BME280;59607;52.130;5.430;2023-02-18T00:01:51;102275.06;;;9.96;100.00
71774;BME280;59607;52.130;5.430;2023-02-18T00:04:34;102282.69;;;9.99;100.00
71774;BME280;59607;52.130;5.430;2023-02-18T00:07:00;102279.09;;;10.00;100.00
71774;BME280;59607;52.130;5.430;2023-02-18T00:09:26;102284.94;;;10.04;100.00
71774;BME280;59607;52.130;5.430;2023-02-18T00:11:53;102281.47;;;10.03;100.00
71774;BME280;59607;52.130;5.430;2023-02-18T00:14:19;102277.06;;;10.04;100.00
71774;BME280;59607;52.130;5.430;2023-02-18T00:16:47;102272.75;;;10.03;100.00
71774;BME280;59607;52.130;5.430;2023-02-18T00:19:17;102281.59;;;10.02;100.00
71774;BME280;59607;52.130;5.430;2023-02-18T00:21:45;102280.19;;;9.97;100.00
71774;BME280;59607;52.130;5.430;2023-02-18T00:24:15;102265.41;;;9.96;100.00
71774;BME280;59607;52.130;5.430;2023-02-18T00:26:42;102267.09;;;9.97;100.00
71774;BME280;59607;52.130;5.430;2023-02-18T00:29:08;102269.81;;;9.96;100.00
71774;BME280;59607;52.130;5.430;2023-02-18T00:31:39;102268.28;;;9.93;100.00
71774;BME280;59607;52.130;5.430;2023-02-18T00:34:06;102259.44;;;9.94;100.00
71774;BME280;59607;52.130;5.430;2023-02-18T00:36:34;102259.56;;;9.93;100.00
71774;BME280;59607;52.130;5.430;2023-02-18T00:39:06;102263.16;;;9.92;100.00
71774;BME280;59607;52.130;5.430;2023-02-18T00:41:34;102259.81;;;9.90;100.00
71774;BME280;59607;52.130;5.430;2023-02-18T00:44:06;102255.41;;;9.90;100.00
71774;BME280;59607;52.130;5.430;2023-02-18T00:46:39;102256.25;;;9.91;100.00
71774;BME280;59607;52.130;5.430;2023-02-18T00:49:10;102252.06;;;9.88;100.00
71774;BME280;59607;52.130;5.430;2023-02-18T00:51:38;102245.19;;;9.87;100.00
71774;BME280;59607;52.130;5.430;2023-02-18T00:54:11;102251.50;;;9.84;100.00
71774;BME280;59607;52.130;5.430;2023-02-18T00:56:37;102240.44;;;9.81;100.00
71774;BME280;59607;52.130;5.430;2023-02-18T00:59:03;102248.66;;;9.76;100.00
71774;BME280;59607;52.130;5.430;2023-02-18T01:01:47;102244.22;;;9.77;100.00
71774;BME280;59607;52.130;5.430;2023-02-18T01:04:25;102235.69;;;9.74;100.00
71774;BME280;59607;52.130;5.430;2023-02-18T01:06:54;102240.19;;;9.72;100.00
71774;BME280;59607;52.130;5.430;2023-02-18T01:09:28;102239.72;;;9.67;100.00
71774;BME280;59607;52.130;5.430;2023-02-18T01:11:57;102239.97;;;9.64;100.00
71774;BME280;59607;52.130;5.430;2023-02-18T01:14:32;102240.59;;;9.56;100.00
71774;BME280;59607;52.130;5.430;2023-02-18T01:17:00;102239.06;;;9.54;100.00
71774;BME280;59607;52.130;5.430;2023-02-18T01:19:30;102249.75;;;9.50;100.00
71774;BME280;59607;52.130;5.430;2023-02-18T01:22:03;102245.94;;;9.43;100.00
71774;BME280;59607;52.130;5.430;2023-02-18T01:24:33;102245.22;;;9.41;100.00
71774;BME280;59607;52.130;5.430;2023-02-18T01:27:06;102242.97;;;9.36;100.00
71774;BME280;59607;52.130;5.430;2023-02-18T01:29:34;102236.91;;;9.36;100.00
71774;BME280;59607;52.130;5.430;2023-02-18T01:32:01;102243.09;;;9.35;100.00
71774;BME280;59607;52.130;5.430;2023-02-18T01:34:28;102240.59;;;9.33;100.00
71774;BME280;59607;52.130;5.430;2023-02-18T01:36:55;102234.53;;;9.33;100.00
71774;BME280;59607;52.130;5.430;2023-02-18T01:39:21;102235.59;;;9.30;100.00
71774;BME280;59607;52.130;5.430;2023-02-18T01:41:48;102224.28;;;9.30;100.00
71774;BME280;59607;52.130;5.430;2023-02-18T01:44:23;102228.72;;;9.29;100.00
71774;BME280;59607;52.130;5.430;2023-02-18T01:46:53;102211.44;;;9.26;100.00
71774;BME280;59607;52.130;5.430;2023-02-18T01:49:32;102214.19;;;9.25;100.00
71774;BME280;59607;52.130;5.430;2023-02-18T01:52:24;102213.47;;;9.23;100.00
71774;BME280;59607;52.130;5.430;2023-02-18T01:54:55;102208.94;;;9.25;100.00
71774;BME280;59607;52.130;5.430;2023-02-18T01:57:32;102204.66;;;9.24;100.00
71774;BME280;59607;52.130;5.430;2023-02-18T02:00:12;102201.22;;;9.23;100.00
71774;BME280;59607;52.130;5.430;2023-02-18T02:02:46;102199.44;;;9.24;100.00
71774;BME280;59607;52.130;5.430;2023-02-18T02:05:18;102213.38;;;9.24;100.00
71774;BME280;59607;52.130;5.430;2023-02-18T02:07:49;102204.66;;;9.24;100.00
71774;BME280;59607;52.130;5.430;2023-02-18T02:10:19;102200.97;;;9.26;100.00
71774;BME280;59607;52.130;5.430;2023-02-18T02:24:22;102166.69;;;9.30;100.00
71774;BME280;59607;52.130;5.430;2023-02-18T02:27:14;102154.31;;;9.32;100.00
71774;BME280;59607;52.130;5.430;2023-02-18T02:44:38;102088.34;;;9.38;100.00
71774;BME280;59607;52.130;5.430;2023-02-18T02:47:26;102090.97;;;9.38;100.00
71774;BME280;59607;52.130;5.430;2023-02-18T02:50:02;102076.94;;;9.39;100.00
71774;BME280;59607;52.130;5.430;2023-02-18T02:52:42;102079.56;;;9.39;100.00
71774;BME280;59607;52.130;5.430;2023-02-18T02:55:20;102071.47;;;9.42;100.00
71774;BME280;59607;52.130;5.430;2023-02-18T02:57:50;102061.69;;;9.44;100.00
71774;BME280;59607;52.130;5.430;2023-02-18T03:00:51;102060.88;;;9.44;100.00
71774;BME280;59607;52.130;5.430;2023-02-18T03:04:03;102052.88;;;9.45;100.00
71774;BME280;59607;52.130;5.430;2023-02-18T03:09:20;102049.16;;;9.48;100.00
71774;BME280;59607;52.130;5.430;2023-02-18T03:12:12;102044.66;;;9.50;100.00
71774;BME280;59607;52.130;5.430;2023-02-18T03:14:58;102040.94;;;9.53;100.00
71774;BME280;59607;52.130;5.430;2023-02-18T03:17:51;102038.91;;;9.56;100.00
71774;BME280;59607;52.130;5.430;2023-02-18T03:21:03;102037.81;;;9.59;100.00
71774;BME280;59607;52.130;5.430;2023-02-18T03:23:40;102030.53;;;9.62;100.00
71774;BME280;59607;52.130;5.430;2023-02-18T03:26:16;102028.50;;;9.66;100.00
71774;BME280;59607;52.130;5.430;2023-02-18T03:28:44;102019.66;;;9.67;100.00
71774;BME280;59607;52.130;5.430;2023-02-18T03:31:20;102024.66;;;9.70;100.00
71774;BME280;59607;52.130;5.430;2023-02-18T03:33:53;102009.78;;;9.71;100.00
71774;BME280;59607;52.130;5.430;2023-02-18T03:36:22;102005.94;;;9.75;100.00
71774;BME280;59607;52.130;5.430;2023-02-18T03:39:19;101997.81;;;9.78;100.00
71774;BME280;59607;52.130;5.430;2023-02-18T03:41:50;101986.53;;;9.78;100.00
71774;BME280;59607;52.130;5.430;2023-02-18T03:44:19;101982.09;;;9.78;100.00
71774;BME280;59607;52.130;5.430;2023-02-18T03:46:49;101980.19;;;9.80;100.00
71774;BME280;59607;52.130;5.430;2023-02-18T03:49:16;101964.47;;;9.80;100.00
71774;BME280;59607;52.130;5.430;2023-02-18T03:51:46;101970.41;;;9.82;100.00
71774;BME280;59607;52.130;5.430;2023-02-18T03:54:20;101959.66;;;9.85;100.00
71774;BME280;59607;52.130;5.430;2023-02-18T03:56:47;101962.28;;;9.85;100.00
71774;BME280;59607;52.130;5.430;2023-02-18T03:59:14;101955.13;;;9.87;100.00
71774;BME280;59607;52.130;5.430;2023-02-18T04:01:40;101952.38;;;9.89;100.00
71774;BME280;59607;52.130;5.430;2023-02-18T04:04:10;101946.03;;;9.92;100.00
71774;BME280;59607;52.130;5.430;2023-02-18T04:06:40;101946.88;;;9.92;100.00
71774;BME280;59607;52.130;5.430;2023-02-18T04:09:08;101946.88;;;9.92;100.00
71774;BME280;59607;52.130;5.430;2023-02-18T04:11:45;101943.28;;;9.93;100.00
71774;BME280;59607;52.130;5.430;2023-02-18T04:14:14;101943.28;;;9.93;100.00
71774;BME280;59607;52.130;5.430;2023-02-18T04:16:44;101939.81;;;9.93;100.00
71774;BME280;59607;52.130;5.430;2023-02-18T04:19:10;101937.91;;;9.95;100.00
71774;BME280;59607;52.130;5.430;2023-02-18T04:21:37;101927.28;;;9.96;100.00
71774;BME280;59607;52.130;5.430;2023-02-18T04:24:08;101912.28;;;9.98;100.00
71774;BME280;59607;52.130;5.430;2023-02-18T04:26:35;101917.25;;;10.02;100.00
71774;BME280;59607;52.130;5.430;2023-02-18T04:29:04;101898.78;;;10.03;100.00
71774;BME280;59607;52.130;5.430;2023-02-18T04:31:34;101911.88;;;10.03;100.00
71774;BME280;59607;52.130;5.430;2023-02-18T04:34:01;101903.88;;;10.05;100.00
71774;BME280;59607;52.130;5.430;2023-02-18T04:36:27;101915.75;;;10.09;100.00
71774;BME280;59607;52.130;5.430;2023-02-18T04:38:57;101913.13;;;10.09;100.00
71774;BME280;59607;52.130;5.430;2023-02-18T04:41:24;101912.19;;;10.10;100.00
71774;BME280;59607;52.130;5.430;2023-02-18T04:43:54;101902.78;;;10.07;100.00
71774;BME280;59607;52.130;5.430;2023-02-18T04:46:20;101900.00;;;10.09;100.00
71774;BME280;59607;52.130;5.430;2023-02-18T04:48:47;101885.25;;;10.08;100.00
71774;BME280;59607;52.130;5.430;2023-02-18T04:51:19;101878.25;;;10.08;100.00
71774;BME280;59607;52.130;5.430;2023-02-18T04:53:49;101867.75;;;10.08;100.00
71774;BME280;59607;52.130;5.430;2023-02-18T04:56:22;101865.94;;;10.09;100.00
71774;BME280;59607;52.130;5.430;2023-02-18T04:58:51;101871.19;;;10.09;100.00
71774;BME280;59607;52.130;5.430;2023-02-18T05:01:17;101867.88;;;10.07;100.00
71774;BME280;59607;52.130;5.430;2023-02-18T05:03:44;101853.25;;;10.04;100.00
71774;BME280;59607;52.130;5.430;2023-02-18T05:06:16;101865.53;;;10.04;100.00
71774;BME280;59607;52.130;5.430;2023-02-18T05:08:44;101871.59;;;10.04;100.00
71774;BME280;59607;52.130;5.430;2023-02-18T05:11:16;101882.34;;;10.01;100.00
71774;BME280;59607;52.130;5.430;2023-02-18T05:13:42;101871.84;;;10.01;100.00
71774;BME280;59607;52.130;5.430;2023-02-18T05:16:12;101878.91;;;10.00;100.00
71774;BME280;59607;52.130;5.430;2023-02-18T05:18:43;101863.31;;;9.99;100.00
71774;BME280;59607;52.130;5.430;2023-02-18T05:21:12;101876.56;;;9.97;100.00
71774;BME280;59607;52.130;5.430;2023-02-18T05:23:42;101878.34;;;9.97;100.00
71774;BME280;59607;52.130;5.430;2023-02-18T05:26:08;101865.22;;;9.97;100.00
71774;BME280;59607;52.130;5.430;2023-02-18T05:28:44;101859.28;;;9.95;100.00
71774;BME280;59607;52.130;5.430;2023-02-18T05:31:11;101856.66;;;9.95;100.00
71774;BME280;59607;52.130;5.430;2023-02-18T05:33:47;101856.78;;;9.93;100.00
71774;BME280;59607;52.130;5.430;2023-02-18T05:36:13;101854.19;;;9.93;100.00
71774;BME280;59607;52.130;5.430;2023-02-18T05:38:40;101855.16;;;9.92;100.00
71774;BME280;59607;52.130;5.430;2023-02-18T05:41:11;101844.41;;;9.95;100.00
71774;BME280;59607;52.130;5.430;2023-02-18T05:43:38;101843.44;;;9.96;100.00
71774;BME280;59607;52.130;5.430;2023-02-18T05:46:23;101827.56;;;9.98;100.00
71774;BME280;59607;52.130;5.430;2023-02-18T05:48:57;101827.56;;;9.98;100.00
71774;BME280;59607;52.130;5.430;2023-02-18T05:51:23;101828.28;;;10.00;100.00
71774;BME280;59607;52.130;5.430;2023-02-18T05:54:00;101830.88;;;10.00;100.00
71774;BME280;59607;52.130;5.430;2023-02-18T05:56:28;101836.97;;;10.00;100.00
71774;BME280;59607;52.130;5.430;2023-02-18T05:58:57;101829.78;;;10.03;100.00
71774;BME280;59607;52.130;5.430;2023-02-18T06:01:27;101818.50;;;10.02;100.00
71774;BME280;59607;52.130;5.430;2023-02-18T06:03:59;101813.13;;;10.04;100.00
71774;BME280;59607;52.130;5.430;2023-02-18T06:06:28;101815.59;;;10.05;100.00
71774;BME280;59607;52.130;5.430;2023-02-18T06:08:58;101820.00;;;10.05;100.00
71774;BME280;59607;52.130;5.430;2023-02-18T06:11:30;101831.31;;;10.05;100.00
71774;BME280;59607;52.130;5.430;2023-02-18T06:14:00;101844.28;;;10.07;100.00
71774;BME280;59607;52.130;5.430;2023-02-18T06:16:32;101830.91;;;10.10;100.00
71774;BME280;59607;52.130;5.430;2023-02-18T06:18:59;101823.19;;;10.08;100.00
71774;BME280;59607;52.130;5.430;2023-02-18T06:21:28;101833.53;;;10.10;100.00
71774;BME280;59607;52.130;5.430;2023-02-18T06:23:54;101830.78;;;10.11;100.00
71774;BME280;59607;52.130;5.430;2023-02-18T06:26:21;101837.66;;;10.12;100.00
71774;BME280;59607;52.130;5.430;2023-02-18T06:28:47;101835.06;;;10.12;100.00
71774;BME280;59607;52.130;5.430;2023-02-18T06:31:13;101831.34;;;10.15;100.00
71774;BME280;59607;52.130;5.430;2023-02-18T06:33:40;101833.13;;;10.15;100.00
71774;BME280;59607;52.130;5.430;2023-02-18T06:36:07;101839.22;;;10.15;100.00
71774;BME280;59607;52.130;5.430;2023-02-18T06:38:39;101845.41;;;10.14;100.00
71774;BME280;59607;52.130;5.430;2023-02-18T06:41:12;101823.47;;;10.15;100.00
71774;BME280;59607;52.130;5.430;2023-02-18T06:43:42;101827.06;;;10.14;100.00
71774;BME280;59607;52.130;5.430;2023-02-18T06:46:11;101828.88;;;10.14;100.00
71774;BME280;59607;52.130;5.430;2023-02-18T06:48:37;101841.28;;;10.11;100.00
71774;BME280;59607;52.130;5.430;2023-02-18T06:51:21;101840.44;;;10.11;100.00
71774;BME280;59607;52.130;5.430;2023-02-18T06:53:52;101848.44;;;10.09;100.00
71774;BME280;59607;52.130;5.430;2023-02-18T06:56:18;101833.69;;;10.08;100.00
71774;BME280;59607;52.130;5.430;2023-02-18T06:58:44;101835.31;;;10.09;100.00
71774;BME280;59607;52.130;5.430;2023-02-18T07:01:15;101833.69;;;10.08;100.00
71774;BME280;59607;52.130;5.430;2023-02-18T07:03:42;101833.09;;;10.05;100.00
71774;BME280;59607;52.130;5.430;2023-02-18T07:06:08;101829.78;;;10.03;100.00
71774;BME280;59607;52.130;5.430;2023-02-18T07:08:53;101822.91;;;10.02;100.00
71774;BME280;59607;52.130;5.430;2023-02-18T07:11:21;101822.19;;;9.99;100.00
71774;BME280;59607;52.130;5.430;2023-02-18T07:13:47;101823.03;;;10.00;100.00
71774;BME280;59607;52.130;5.430;2023-02-18T07:16:13;101828.97;;;10.02;100.00
71774;BME280;59607;52.130;5.430;2023-02-18T07:18:45;101821.91;;;10.03;100.00
71774;BME280;59607;52.130;5.430;2023-02-18T07:21:12;101818.34;;;10.04;100.00
71774;BME280;59607;52.130;5.430;2023-02-18T07:23:41;101811.44;;;10.03;100.00
71774;BME280;59607;52.130;5.430;2023-02-18T07:26:11;101828.84;;;10.04;100.00
71774;BME280;59607;52.130;5.430;2023-02-18T07:28:39;101833.25;;;10.03;100.00
71774;BME280;59607;52.130;5.430;2023-02-18T07:31:32;101823.72;;;10.02;100.00
71774;BME280;59607;52.130;5.430;2023-02-18T07:33:59;101816.00;;;10.00;100.00
71774;BME280;59607;52.130;5.430;2023-02-18T07:36:31;101811.72;;;9.99;100.00
71774;BME280;59607;52.130;5.430;2023-02-18T07:39:05;101811.84;;;9.98;100.00
71774;BME280;59607;52.130;5.430;2023-02-18T07:41:46;101800.56;;;9.97;100.00
71774;BME280;59607;52.130;5.430;2023-02-18T07:44:13;101814.19;;;10.01;100.00
71774;BME280;59607;52.130;5.430;2023-02-18T07:46:43;101802.75;;;10.02;100.00
71774;BME280;59607;52.130;5.430;2023-02-18T07:49:12;101793.09;;;10.03;100.00
71774;BME280;59607;52.130;5.430;2023-02-18T07:51:48;101813.91;;;10.04;100.00
71774;BME280;59607;52.130;5.430;2023-02-18T07:54:15;101807.88;;;10.04;100.00
71774;BME280;59607;52.130;5.430;2023-02-18T07:56:49;101812.28;;;10.03;100.00
71774;BME280;59607;52.130;5.430;2023-02-18T07:59:16;101816.69;;;10.03;100.00
71774;BME280;59607;52.130;5.430;2023-02-18T08:01:49;101809.66;;;10.03;100.00
71774;BME280;59607;52.130;5.430;2023-02-18T08:04:16;101817.50;;;10.03;100.00
71774;BME280;59607;52.130;5.430;2023-02-18T08:06:52;101827.16;;;10.03;100.00
71774;BME280;59607;52.130;5.430;2023-02-18T08:09:18;101824.53;;;10.03;100.00
71774;BME280;59607;52.130;5.430;2023-02-18T08:11:45;101839.47;;;10.02;100.00
71774;BME280;59607;52.130;5.430;2023-02-18T08:14:17;101829.91;;;10.01;100.00
71774;BME280;59607;52.130;5.430;2023-02-18T08:16:43;101834.34;;;10.00;100.00
71774;BME280;59607;52.130;5.430;2023-02-18T08:19:12;101833.50;;;10.00;100.00
71774;BME280;59607;52.130;5.430;2023-02-18T08:21:41;101832.81;;;9.98;100.00
71774;BME280;59607;52.130;5.430;2023-02-18T08:24:07;101832.13;;;9.96;100.00
71774;BME280;59607;52.130;5.430;2023-02-18T08:26:34;101836.53;;;9.95;100.00
71774;BME280;59607;52.130;5.430;2023-02-18T08:29:05;101843.69;;;9.93;100.00
71774;BME280;59607;52.130;5.430;2023-02-18T08:31:32;101845.47;;;9.93;100.00
71774;BME280;59607;52.130;5.430;2023-02-18T08:33:59;101845.47;;;9.93;100.00
71774;BME280;59607;52.130;5.430;2023-02-18T08:36:31;101850.44;;;9.86;100.00
71774;BME280;59607;52.130;5.430;2023-02-18T08:39:01;101868.22;;;9.82;100.00
71774;BME280;59607;52.130;5.430;2023-02-18T08:41:41;101861.44;;;9.80;100.00
71774;BME280;59607;52.130;5.430;2023-02-18T08:44:23;101862.66;;;9.75;100.00
71774;BME280;59607;52.130;5.430;2023-02-18T08:46:55;101853.97;;;9.75;100.00
71774;BME280;59607;52.130;5.430;2023-02-18T08:49:21;101845.44;;;9.73;100.00
71774;BME280;59607;52.130;5.430;2023-02-18T08:51:52;101852.31;;;9.74;100.00
71774;BME280;59607;52.130;5.430;2023-02-18T08:54:19;101833.97;;;9.74;100.00
71774;BME280;59607;52.130;5.430;2023-02-18T08:56:45;101845.56;;;9.71;100.00
71774;BME280;59607;52.130;5.430;2023-02-18T08:59:15;101845.97;;;9.77;100.00
71774;BME280;59607;52.130;5.430;2023-02-18T09:01:43;101853.16;;;9.74;100.00
71774;BME280;59607;52.130;5.430;2023-02-18T09:04:10;101861.81;;;9.75;100.00
71774;BME280;59607;52.130;5.430;2023-02-18T09:06:37;101847.91;;;9.74;100.00
71774;BME280;59607;52.130;5.430;2023-02-18T09:09:07;101861.03;;;9.74;100.00
71774;BME280;59607;52.130;5.430;2023-02-18T09:11:35;101848.06;;;9.73;100.00
71774;BME280;59607;52.130;5.430;2023-02-18T09:14:12;101861.56;;;9.78;100.00
71774;BME280;59607;52.130;5.430;2023-02-18T09:16:40;101866.81;;;9.78;100.00
71774;BME280;59607;52.130;5.430;2023-02-18T09:19:07;101845.03;;;9.78;100.00
71774;BME280;59607;52.130;5.430;2023-02-18T09:21:34;101850.28;;;9.78;100.00
71774;BME280;59607;52.130;5.430;2023-02-18T09:24:00;101856.19;;;9.80;100.00
71774;BME280;59607;52.130;5.430;2023-02-18T09:26:30;101852.63;;;9.81;100.00
71774;BME280;59607;52.130;5.430;2023-02-18T09:29:00;101853.47;;;9.81;100.00
71774;BME280;59607;52.130;5.430;2023-02-18T09:31:28;101852.63;;;9.81;100.00
71774;BME280;59607;52.130;5.430;2023-02-18T09:34:16;101843.78;;;9.82;100.00
71774;BME280;59607;52.130;5.430;2023-02-18T09:36:43;101862.72;;;9.85;100.00
71774;BME280;59607;52.130;5.430;2023-02-18T09:39:09;101861.75;;;9.86;100.00
71774;BME280;59607;52.130;5.430;2023-02-18T09:44:52;101875.00;;;9.95;100.00
71774;BME280;59607;52.130;5.430;2023-02-18T09:47:35;101881.09;;;9.95;100.00
71774;BME280;59607;52.130;5.430;2023-02-18T09:50:35;101863.44;;;9.97;100.00
71774;BME280;59607;52.130;5.430;2023-02-18T09:53:04;101892.28;;;9.97;100.00
71774;BME280;59607;52.130;5.430;2023-02-18T09:55:54;101875.59;;;9.98;100.00
71774;BME280;59607;52.130;5.430;2023-02-18T09:58:35;101892.81;;;10.01;100.00
71774;BME280;59607;52.130;5.430;2023-02-18T10:03:44;101887.19;;;10.06;100.00
71774;BME280;59607;52.130;5.430;2023-02-18T10:06:21;101883.63;;;10.07;100.00
71774;BME280;59607;52.130;5.430;2023-02-18T10:08:51;101884.84;;;10.12;100.00
71774;BME280;59607;52.130;5.430;2023-02-18T10:11:28;101908.44;;;10.12;100.00
71774;BME280;59607;52.130;5.430;2023-02-18T10:14:10;101900.03;;;10.19;100.00
71774;BME280;59607;52.130;5.430;2023-02-18T10:16:51;101885.31;;;10.28;100.00
71774;BME280;59607;52.130;5.430;2023-02-18T10:19:32;101903.84;;;10.36;100.00
71774;BME280;59607;52.130;5.430;2023-02-18T10:22:03;101895.63;;;10.51;100.00
71774;BME280;59607;52.130;5.430;2023-02-18T10:24:32;101879.88;;;10.51;100.00
71774;BME280;59607;52.130;5.430;2023-02-18T10:27:04;101886.06;;;10.49;100.00
71774;BME280;59607;52.130;5.430;2023-02-18T10:29:35;101898.91;;;10.53;100.00
71774;BME280;59607;52.130;5.430;2023-02-18T10:32:24;101894.22;;;10.56;100.00
71774;BME280;59607;52.130;5.430;2023-02-18T10:40:41;101896.72;;;10.78;100.00
71774;BME280;59607;52.130;5.430;2023-02-18T10:49:37;101912.34;;;10.89;100.00
71774;BME280;59607;52.130;5.430;2023-02-18T10:52:17;101918.81;;;10.95;100.00
71774;BME280;59607;52.130;5.430;2023-02-18T10:55:02;101913.72;;;11.03;100.00
71774;BME280;59607;52.130;5.430;2023-02-18T10:57:32;101923.94;;;11.06;100.00
71774;BME280;59607;52.130;5.430;2023-02-18T11:00:26;101924.34;;;11.11;100.00
71774;BME280;59607;52.130;5.430;2023-02-18T11:03:17;101912.75;;;11.14;100.00
71774;BME280;59607;52.130;5.430;2023-02-18T11:05:47;101900.72;;;11.11;100.00
71774;BME280;59607;52.130;5.430;2023-02-18T11:08:41;101898.78;;;11.14;100.00
71774;BME280;59607;52.130;5.430;2023-02-18T11:11:23;101907.66;;;11.13;100.00
71774;BME280;59607;52.130;5.430;2023-02-18T11:13:59;101909.28;;;11.23;100.00
71774;BME280;59607;52.130;5.430;2023-02-18T11:16:45;101913.84;;;11.31;100.00
71774;BME280;59607;52.130;5.430;2023-02-18T11:19:31;101907.44;;;11.44;100.00
71774;BME280;59607;52.130;5.430;2023-02-18T11:22:23;101913.09;;;11.49;100.00
71774;BME280;59607;52.130;5.430;2023-02-18T11:25:17;101903.72;;;11.46;100.00
71774;BME280;59607;52.130;5.430;2023-02-18T11:27:48;101899.16;;;11.39;100.00
71774;BME280;59607;52.130;5.430;2023-02-18T11:32:54;101919.38;;;11.28;100.00
71774;BME280;59607;52.130;5.430;2023-02-18T11:35:31;101905.13;;;11.31;100.00
71774;BME280;59607;52.130;5.430;2023-02-18T11:38:13;101925.31;;;11.20;100.00
71774;BME280;59607;52.130;5.430;2023-02-18T11:40:55;101907.66;;;11.13;100.00
71774;BME280;59607;52.130;5.430;2023-02-18T11:43:28;101913.84;;;11.11;100.00
71774;BME280;59607;52.130;5.430;2023-02-18T11:46:19;101921.16;;;11.08;100.00
71774;BME280;59607;52.130;5.430;2023-02-18T11:48:49;101928.09;;;11.09;100.00
71774;BME280;59607;52.130;5.430;2023-02-18T11:51:26;101907.22;;;11.17;100.00
71774;BME280;59607;52.130;5.430;2023-02-18T11:53:57;101923.66;;;11.19;100.00
71774;BME280;59607;52.130;5.430;2023-02-18T11:56:31;101918.41;;;11.19;100.00
71774;BME280;59607;52.130;5.430;2023-02-18T11:59:23;101926.16;;;11.11;100.00
71774;BME280;59607;52.130;5.430;2023-02-18T12:04:50;101923.53;;;11.11;100.00
71774;BME280;59607;52.130;5.430;2023-02-18T12:07:24;101915.25;;;11.16;100.00
71774;BME280;59607;52.130;5.430;2023-02-18T12:09:55;101911.78;;;11.15;100.00
71774;BME280;59607;52.130;5.430;2023-02-18T12:12:34;101902.41;;;11.13;100.00
71774;BME280;59607;52.130;5.430;2023-02-18T12:15:13;101915.66;;;11.11;100.00
71774;BME280;59607;52.130;5.430;2023-02-18T12:20:44;101916.47;;;11.11;100.00
71774;BME280;59607;52.130;5.430;2023-02-18T12:26:51;101907.09;;;11.19;100.00
71774;BME280;59607;52.130;5.430;2023-02-18T12:46:21;101915.16;;;11.55;100.00
71774;BME280;59607;52.130;5.430;2023-02-18T12:48:55;101916.94;;;11.65;100.00
71774;BME280;59607;52.130;5.430;2023-02-18T13:03:50;101917.91;;;12.02;100.00
71774;BME280;59607;52.130;5.430;2023-02-18T13:09:48;101919.47;;;11.94;100.00
71774;BME280;59607;52.130;5.430;2023-02-18T13:12:13;101923.22;;;11.92;100.00
71774;BME280;59607;52.130;5.430;2023-02-18T13:14:52;101923.50;;;11.89;100.00
71774;BME280;59607;52.130;5.430;2023-02-18T13:17:26;101915.22;;;11.83;100.00
71774;BME280;59607;52.130;5.430;2023-02-18T13:19:58;101920.78;;;11.80;100.00
71774;BME280;59607;52.130;5.430;2023-02-18T13:22:31;101923.53;;;11.79;100.00
71774;BME280;59607;52.130;5.430;2023-02-18T13:24:59;101917.44;;;11.78;100.00
71774;BME280;59607;52.130;5.430;2023-02-18T13:27:35;101920.91;;;11.79;100.00
71774;BME280;59607;52.130;5.430;2023-02-18T13:32:37;101914.25;;;11.84;100.00
71774;BME280;59607;52.130;5.430;2023-02-18T13:41:08;101922.81;;;11.87;100.00
71774;BME280;59607;52.130;5.430;2023-02-18T13:43:36;101919.59;;;11.93;100.00
71774;BME280;59607;52.130;5.430;2023-02-18T13:46:47;101921.53;;;11.91;100.00
71774;BME280;59607;52.130;5.430;2023-02-18T13:49:27;101921.03;;;11.87;100.00
71774;BME280;59607;52.130;5.430;2023-02-18T13:51:58;101923.66;;;11.87;100.00
71774;BME280;59607;52.130;5.430;2023-02-18T13:54:33;101926.00;;;11.90;100.00
71774;BME280;59607;52.130;5.430;2023-02-18T13:57:19;101926.81;;;11.91;100.00
71774;BME280;59607;52.130;5.430;2023-02-18T13:59:56;101939.78;;;11.92;100.00
71774;BME280;59607;52.130;5.430;2023-02-18T14:05:14;101943.38;;;12.01;100.00
71774;BME280;59607;52.130;5.430;2023-02-18T14:07:48;101939.22;;;12.08;100.00
71774;BME280;59607;52.130;5.430;2023-02-18T14:20:45;101936.28;;;12.40;100.00
71774;BME280;59607;52.130;5.430;2023-02-18T14:26:08;101934.34;;;12.42;100.00
71774;BME280;59607;52.130;5.430;2023-02-18T14:31:55;101944.56;;;12.45;100.00
71774;BME280;59607;52.130;5.430;2023-02-18T14:46:34;101936.88;;;12.62;100.00
71774;BME280;59607;52.130;5.430;2023-02-18T14:49:31;101942.44;;;12.58;100.00
71774;BME280;59607;52.130;5.430;2023-02-18T14:52:11;101942.03;;;12.53;100.00
71774;BME280;59607;52.130;5.430;2023-02-18T14:54:41;101938.56;;;12.53;100.00
71774;BME280;59607;52.130;5.430;2023-02-18T14:57:17;101941.34;;;12.51;100.00
71774;BME280;59607;52.130;5.430;2023-02-18T15:00:05;101941.09;;;12.44;100.00
71774;BME280;59607;52.130;5.430;2023-02-18T15:02:35;101947.34;;;12.43;100.00
71774;BME280;59607;52.130;5.430;2023-02-18T15:05:36;101949.28;;;12.41;100.00
71774;BME280;59607;52.130;5.430;2023-02-18T15:11:05;101941.69;;;12.38;100.00
71774;BME280;59607;52.130;5.430;2023-02-18T15:13:42;101937.56;;;12.36;100.00
71774;BME280;59607;52.130;5.430;2023-02-18T15:16:29;101956.94;;;12.34;100.00
71774;BME280;59607;52.130;5.430;2023-02-18T15:19:16;101949.34;;;12.31;100.00
71774;BME280;59607;52.130;5.430;2023-02-18T15:21:49;101943.28;;;12.31;100.00
71774;BME280;59607;52.130;5.430;2023-02-18T15:24:30;101946.88;;;12.30;100.00
71774;BME280;59607;52.130;5.430;2023-02-18T15:27:03;101948.84;;;12.28;100.00
71774;BME280;59607;52.130;5.430;2023-02-18T15:29:33;101949.66;;;12.28;100.00
71774;BME280;59607;52.130;5.430;2023-02-18T15:32:24;101947.00;;;12.28;100.00